createdAt,value
2022-10-26T00:01:43.498Z,101017.15
2022-10-26T00:04:15.744Z,101015.69
2022-10-26T00:06:47.868Z,101015.44
2022-10-26T00:09:20.054Z,101025.20
2022-10-26T00:11:53.488Z,101026.43
2022-10-26T00:14:25.903Z,101027.40
2022-10-26T00:16:58.123Z,101026.67
2022-10-26T00:19:30.662Z,101022.65
2022-10-26T00:22:02.871Z,101019.84
2022-10-26T00:24:35.225Z,101018.10
2022-10-26T00:27:07.510Z,101017.69
2022-10-26T00:29:39.685Z,101018.39
2022-10-26T00:32:11.908Z,101016.65
2022-10-26T00:34:44.099Z,101016.72
2022-10-26T00:37:16.225Z,101017.66
2022-10-26T00:39:48.500Z,101018.97
2022-10-26T00:42:24.311Z,101029.75
2022-10-26T00:45:02.187Z,101035.34
2022-10-26T00:47:41.072Z,101036.02
2022-10-26T00:50:19.667Z,101036.29
2022-10-26T00:52:52.970Z,101031.35
2022-10-26T00:55:30.830Z,101029.16
2022-10-26T00:58:05.774Z,101028.35
2022-10-26T01:00:38.217Z,101022.72
2022-10-26T01:03:11.912Z,101022.92
2022-10-26T01:05:47.079Z,101024.59
2022-10-26T01:08:20.678Z,101024.63
2022-10-26T01:10:53.353Z,101024.94
2022-10-26T01:13:26.329Z,101021.69
2022-10-26T01:16:09.255Z,101019.73
2022-10-26T01:18:49.101Z,101023.46
2022-10-26T01:21:42.104Z,101026.35
2022-10-26T01:24:39.426Z,101025.05
2022-10-26T01:27:25.108Z,101024.48
2022-10-26T01:30:22.767Z,101025.38
2022-10-26T01:33:18.827Z,101025.23
2022-10-26T01:35:56.607Z,101029.44
2022-10-26T01:38:36.320Z,101027.52
2022-10-26T01:41:13.528Z,101029.71
2022-10-26T01:43:51.956Z,101030.05
2022-10-26T01:46:25.672Z,101031.67
2022-10-26T01:49:03.059Z,101033.08
2022-10-26T01:51:36.635Z,101027.58
2022-10-26T01:54:08.917Z,101032.30
2022-10-26T01:56:43.268Z,101031.23
2022-10-26T01:59:28.094Z,101031.49
2022-10-26T02:02:37.200Z,101036.11
2022-10-26T02:05:24.955Z,101043.66
2022-10-26T02:08:05.633Z,101050.49
2022-10-26T02:10:50.286Z,101051.54
2022-10-26T02:13:31.677Z,101054.02
2022-10-26T02:16:14.288Z,101055.61
2022-10-26T02:18:52.385Z,101059.30
2022-10-26T02:21:29.314Z,101059.27
2022-10-26T02:24:03.275Z,101065.36
2022-10-26T02:26:37.382Z,101062.38
2022-10-26T02:29:12.857Z,101067.27
2022-10-26T02:31:48.182Z,101070.56
2022-10-26T02:34:25.548Z,101070.33
2022-10-26T02:37:02.315Z,101073.58
2022-10-26T02:39:38.750Z,101074.11
2022-10-26T02:42:14.755Z,101074.38
2022-10-26T02:44:51.468Z,101075.34
2022-10-26T02:47:24.837Z,101073.77
2022-10-26T02:49:57.725Z,101070.26
2022-10-26T02:52:37.165Z,101069.52
2022-10-26T02:55:16.035Z,101071.95
2022-10-26T02:57:52.763Z,101077.10
2022-10-26T03:00:25.236Z,101081.27
2022-10-26T03:02:59.864Z,101090.27
2022-10-26T03:05:33.990Z,101096.30
2022-10-26T03:08:06.764Z,101096.45
2022-10-26T03:10:44.297Z,101097.45
2022-10-26T03:13:16.782Z,101099.24
2022-10-26T03:15:48.972Z,101102.11
2022-10-26T03:18:21.202Z,101110.47
2022-10-26T03:20:53.312Z,101112.72
2022-10-26T03:23:25.623Z,101115.23
2022-10-26T03:26:01.292Z,101117.55
2022-10-26T03:28:31.770Z,101121.81
2022-10-26T03:31:04.058Z,101121.88
2022-10-26T03:36:13.723Z,101121.35
2022-10-26T03:38:45.984Z,101119.37
2022-10-26T03:41:18.139Z,101120.90
2022-10-26T03:43:50.338Z,101126.00
2022-10-26T03:46:22.556Z,101126.36
2022-10-26T03:48:54.931Z,101126.50
2022-10-26T03:51:28.270Z,101129.80
2022-10-26T03:54:00.581Z,101134.30
2022-10-26T03:56:32.758Z,101134.60
2022-10-26T03:59:05.469Z,101135.17
2022-10-26T04:01:37.728Z,101135.26
2022-10-26T04:04:10.195Z,101137.25
2022-10-26T04:06:42.666Z,101135.20
2022-10-26T04:09:14.835Z,101135.96
2022-10-26T04:11:47.032Z,101136.30
2022-10-26T04:14:19.316Z,101140.77
2022-10-26T04:16:51.518Z,101141.80
2022-10-26T04:19:23.709Z,101141.70
2022-10-26T04:21:55.858Z,101137.14
2022-10-26T04:24:28.025Z,101131.83
2022-10-26T04:27:00.193Z,101133.05
2022-10-26T04:29:32.359Z,101128.52
2022-10-26T04:32:04.588Z,101125.07
2022-10-26T04:34:36.858Z,101120.76
2022-10-26T04:37:09.067Z,101119.33
2022-10-26T04:39:41.189Z,101126.71
2022-10-26T04:42:13.669Z,101134.61
2022-10-26T04:44:45.929Z,101140.00
2022-10-26T04:47:18.131Z,101143.36
2022-10-26T04:49:50.249Z,101150.23
2022-10-26T04:52:22.425Z,101154.95
2022-10-26T04:54:54.610Z,101157.52
2022-10-26T04:57:26.836Z,101162.46
2022-10-26T04:59:58.992Z,101166.04
2022-10-26T05:02:31.753Z,101167.44
2022-10-26T05:07:36.127Z,101172.38
2022-10-26T05:10:10.208Z,101173.89
2022-10-26T05:12:42.359Z,101179.13
2022-10-26T05:15:15.431Z,101183.82
2022-10-26T05:17:47.926Z,101181.17
2022-10-26T05:20:20.522Z,101178.42
2022-10-26T05:22:57.166Z,101184.08
2022-10-26T05:25:30.443Z,101183.64
2022-10-26T05:28:03.265Z,101183.98
2022-10-26T05:30:35.690Z,101183.14
2022-10-26T05:33:08.584Z,101184.98
2022-10-26T05:35:41.132Z,101188.90
2022-10-26T05:38:15.422Z,101187.95
2022-10-26T05:40:55.407Z,101183.77
2022-10-26T05:43:28.507Z,101187.05
2022-10-26T05:46:00.740Z,101190.34
2022-10-26T05:48:32.995Z,101195.06
2022-10-26T05:51:05.377Z,101198.34
2022-10-26T05:53:37.695Z,101205.47
2022-10-26T05:56:18.563Z,101206.15
2022-10-26T05:58:51.905Z,101204.38
2022-10-26T06:01:35.777Z,101203.96
2022-10-26T06:04:18.416Z,101206.06
2022-10-26T06:06:54.888Z,101207.65
2022-10-26T06:09:28.690Z,101214.50
2022-10-26T06:12:02.699Z,101218.14
2022-10-26T06:14:36.245Z,101224.33
2022-10-26T06:17:22.541Z,101228.48
2022-10-26T06:19:59.908Z,101234.96
2022-10-26T06:22:45.661Z,101238.31
2022-10-26T06:25:29.832Z,101239.51
2022-10-26T06:28:15.870Z,101240.18
2022-10-26T06:30:48.364Z,101239.77
2022-10-26T06:33:30.326Z,101240.97
2022-10-26T06:36:16.167Z,101243.59
2022-10-26T06:38:49.556Z,101251.02
2022-10-26T06:41:24.353Z,101258.86
2022-10-26T06:43:57.640Z,101260.92
2022-10-26T06:46:37.912Z,101262.58
2022-10-26T06:49:21.114Z,101271.02
2022-10-26T06:51:59.987Z,101267.30
2022-10-26T06:54:46.901Z,101265.77
2022-10-26T06:57:21.323Z,101266.44
2022-10-26T06:59:56.064Z,101265.33
2022-10-26T07:02:28.659Z,101272.63
2022-10-26T07:05:01.588Z,101274.88
2022-10-26T07:07:34.224Z,101280.57
2022-10-26T07:10:07.408Z,101282.73
2022-10-26T07:12:39.965Z,101284.29
2022-10-26T07:15:12.861Z,101287.08
2022-10-26T07:17:49.521Z,101278.83
2022-10-26T07:20:25.074Z,101278.02
2022-10-26T07:22:58.061Z,101278.16
2022-10-26T07:25:30.663Z,101279.55
2022-10-26T07:28:03.122Z,101279.20
2022-10-26T07:30:35.335Z,101279.61
2022-10-26T07:33:09.759Z,101277.77
2022-10-26T07:35:42.568Z,101283.88
2022-10-26T07:38:15.295Z,101285.98
2022-10-26T07:40:47.407Z,101284.33
2022-10-26T07:43:19.599Z,101286.15
2022-10-26T07:45:53.466Z,101286.33
2022-10-26T07:48:25.759Z,101286.60
2022-10-26T07:50:58.039Z,101286.73
2022-10-26T07:53:30.233Z,101290.71
2022-10-26T07:56:02.413Z,101286.14
2022-10-26T07:58:34.559Z,101285.28
2022-10-26T08:01:11.474Z,101288.47
2022-10-26T08:03:43.969Z,101293.42
2022-10-26T08:06:16.064Z,101291.14
2022-10-26T08:08:48.320Z,101293.03
2022-10-26T08:11:20.914Z,101293.33
2022-10-26T08:13:56.621Z,101299.52
2022-10-26T08:16:28.891Z,101294.80
2022-10-26T08:19:01.091Z,101289.73
2022-10-26T08:21:39.754Z,101290.55
2022-10-26T08:24:13.282Z,101292.14
2022-10-26T08:26:45.725Z,101295.08
2022-10-26T08:29:17.867Z,101294.70
2022-10-26T08:31:51.852Z,101288.98
2022-10-26T08:34:24.185Z,101286.57
2022-10-26T08:36:56.254Z,101284.25
2022-10-26T08:39:30.746Z,101294.02
2022-10-26T08:42:07.654Z,101300.53
2022-10-26T08:44:45.429Z,101301.01
2022-10-26T08:47:22.165Z,101306.02
2022-10-26T08:50:01.035Z,101302.77
2022-10-26T08:52:39.584Z,101309.88
2022-10-26T08:55:17.510Z,101313.29
2022-10-26T08:57:51.606Z,101313.55
2022-10-26T09:00:27.080Z,101315.48
2022-10-26T09:03:00.008Z,101314.88
2022-10-26T09:05:39.804Z,101317.73
2022-10-26T09:08:22.149Z,101317.19
2022-10-26T09:11:03.753Z,101318.38
2022-10-26T09:13:43.532Z,101321.30
2022-10-26T09:16:26.532Z,101327.23
2022-10-26T09:19:16.151Z,101324.08
2022-10-26T09:21:58.026Z,101320.94
2022-10-26T09:24:34.317Z,101316.54
2022-10-26T09:27:15.956Z,101316.16
2022-10-26T09:29:49.928Z,101314.38
2022-10-26T09:32:25.731Z,101313.30
2022-10-26T09:35:01.441Z,101312.41
2022-10-26T09:37:38.397Z,101308.39
2022-10-26T09:40:17.561Z,101303.55
2022-10-26T09:42:56.231Z,101308.12
2022-10-26T09:45:34.111Z,101301.64
2022-10-26T09:48:12.623Z,101300.21
2022-10-26T09:50:49.757Z,101297.39
2022-10-26T09:53:21.847Z,101295.96
2022-10-26T09:56:03.469Z,101293.58
2022-10-26T09:58:42.908Z,101291.23
2022-10-26T10:01:30.247Z,101294.24
2022-10-26T10:04:22.851Z,101293.61
2022-10-26T10:07:13.297Z,101285.58
2022-10-26T10:09:45.443Z,101287.58
2022-10-26T10:12:23.700Z,101283.16
2022-10-26T10:15:02.219Z,101279.27
2022-10-26T10:17:34.951Z,101280.70
2022-10-26T10:20:25.986Z,101277.25
2022-10-26T10:23:03.690Z,101280.61
2022-10-26T10:25:40.333Z,101274.41
2022-10-26T10:28:24.793Z,101272.70
2022-10-26T10:30:59.657Z,101271.73
2022-10-26T10:33:40.699Z,101271.63
2022-10-26T10:36:17.963Z,101271.95
2022-10-26T10:38:52.799Z,101270.33
2022-10-26T10:41:30.605Z,101265.87
2022-10-26T10:44:10.151Z,101263.61
2022-10-26T10:46:42.370Z,101262.83
2022-10-26T10:49:25.135Z,101259.98
2022-10-26T10:51:58.629Z,101261.38
2022-10-26T10:54:34.374Z,101255.14
2022-10-26T10:57:19.530Z,101260.84
2022-10-26T11:00:05.783Z,101252.43
2022-10-26T11:03:16.929Z,101256.39
2022-10-26T11:05:59.347Z,101256.80
2022-10-26T11:08:35.808Z,101260.61
2022-10-26T11:11:13.581Z,101260.95
2022-10-26T11:13:51.847Z,101255.63
2022-10-26T11:16:27.675Z,101256.22
2022-10-26T11:19:05.895Z,101255.39
2022-10-26T11:21:39.714Z,101254.38
2022-10-26T11:24:21.680Z,101258.45
2022-10-26T11:26:56.851Z,101255.52
2022-10-26T11:29:41.646Z,101253.07
2022-10-26T11:32:22.053Z,101256.19
2022-10-26T11:34:59.736Z,101254.91
2022-10-26T11:37:38.700Z,101256.27
2022-10-26T11:40:23.380Z,101256.20
2022-10-26T11:43:06.860Z,101255.44
2022-10-26T11:45:43.228Z,101257.92
2022-10-26T11:48:20.955Z,101254.30
2022-10-26T11:50:55.083Z,101249.77
2022-10-26T11:53:31.914Z,101248.96
2022-10-26T11:56:06.616Z,101244.34
2022-10-26T11:58:40.239Z,101244.75
2022-10-26T12:01:15.678Z,101241.29
2022-10-26T12:03:48.317Z,101243.13
2022-10-26T12:06:26.393Z,101239.46
2022-10-26T12:09:04.403Z,101239.23
2022-10-26T12:11:45.360Z,101244.79
2022-10-26T12:14:25.098Z,101243.83
2022-10-26T12:17:08.560Z,101244.06
2022-10-26T12:19:49.419Z,101244.30
2022-10-26T12:22:24.743Z,101241.79
2022-10-26T12:25:21.497Z,101242.38
2022-10-26T12:27:56.141Z,101243.45
2022-10-26T12:30:31.472Z,101242.10
2022-10-26T12:33:05.441Z,101241.05
2022-10-26T12:35:45.887Z,101245.01
2022-10-26T12:38:57.329Z,101245.98
2022-10-26T12:41:30.494Z,101243.95
2022-10-26T12:44:32.003Z,101244.67
2022-10-26T12:47:04.585Z,101244.45
2022-10-26T12:50:03.685Z,101244.47
2022-10-26T12:52:54.295Z,101246.35
2022-10-26T12:56:03.805Z,101247.31
2022-10-26T12:59:14.436Z,101251.02
2022-10-26T13:02:14.791Z,101250.71
2022-10-26T13:05:24.007Z,101248.17
2022-10-26T13:08:05.731Z,101256.84
2022-10-26T13:10:41.955Z,101253.29
2022-10-26T13:13:25.426Z,101252.89
2022-10-26T13:15:59.404Z,101252.51
2022-10-26T13:18:32.512Z,101246.71
2022-10-26T13:21:09.920Z,101248.98
2022-10-26T13:23:45.774Z,101249.96
2022-10-26T13:26:19.574Z,101248.61
2022-10-26T13:28:54.091Z,101250.58
2022-10-26T13:31:59.621Z,101247.60
2022-10-26T13:34:33.228Z,101248.09
2022-10-26T13:37:19.075Z,101248.96
2022-10-26T13:39:56.060Z,101247.49
2022-10-26T13:45:10.931Z,101248.16
2022-10-26T13:47:49.788Z,101248.36
2022-10-26T13:50:27.607Z,101252.29
2022-10-26T13:53:12.195Z,101253.09
2022-10-26T13:55:54.328Z,101255.40
2022-10-26T13:58:34.962Z,101254.61
2022-10-26T14:01:18.262Z,101256.27
2022-10-26T14:03:50.947Z,101257.16
2022-10-26T14:06:28.136Z,101259.77
2022-10-26T14:09:04.419Z,101259.32
2022-10-26T14:11:44.630Z,101260.20
2022-10-26T14:14:20.188Z,101259.52
2022-10-26T14:16:51.456Z,101260.23
2022-10-26T14:19:28.412Z,101261.67
2022-10-26T14:22:01.289Z,101259.42
2022-10-26T14:24:52.853Z,101260.91
2022-10-26T14:27:26.925Z,101264.81
2022-10-26T14:30:21.005Z,101266.23
2022-10-26T14:32:52.374Z,101264.63
2022-10-26T14:35:29.977Z,101269.36
2022-10-26T14:38:04.631Z,101268.38
2022-10-26T14:40:38.238Z,101268.44
2022-10-26T14:43:18.238Z,101273.79
2022-10-26T14:45:56.908Z,101274.91
2022-10-26T14:48:33.524Z,101275.61
2022-10-26T14:51:10.211Z,101280.36
2022-10-26T14:53:49.169Z,101280.59
2022-10-26T14:56:25.923Z,101280.64
2022-10-26T14:58:59.504Z,101279.87
2022-10-26T15:01:48.469Z,101280.38
2022-10-26T15:04:32.074Z,101282.38
2022-10-26T15:07:17.907Z,101284.41
2022-10-26T15:09:51.150Z,101281.63
2022-10-26T15:12:32.970Z,101290.86
2022-10-26T15:17:55.864Z,101297.70
2022-10-26T15:20:31.013Z,101301.51
2022-10-26T15:23:04.785Z,101309.63
2022-10-26T15:25:37.898Z,101313.75
2022-10-26T15:28:23.180Z,101319.83
2022-10-26T15:31:07.233Z,101324.27
2022-10-26T15:33:41.171Z,101330.36
2022-10-26T15:36:21.175Z,101336.36
2022-10-26T15:38:54.054Z,101338.64
2022-10-26T15:41:28.829Z,101341.05
2022-10-26T15:44:06.143Z,101338.56
2022-10-26T15:46:39.896Z,101344.61
2022-10-26T15:49:19.517Z,101344.99
2022-10-26T15:51:51.998Z,101348.57
2022-10-26T15:54:24.203Z,101352.45
2022-10-26T15:56:56.917Z,101354.63
2022-10-26T15:59:29.233Z,101355.38
2022-10-26T16:02:01.468Z,101358.38
2022-10-26T16:04:34.030Z,101359.10
2022-10-26T16:07:07.698Z,101357.29
2022-10-26T16:09:41.030Z,101361.83
2022-10-26T16:12:14.988Z,101361.81
2022-10-26T16:15:04.392Z,101363.76
2022-10-26T16:17:37.498Z,101370.89
2022-10-26T16:20:14.220Z,101375.48
2022-10-26T16:22:48.500Z,101375.63
2022-10-26T16:25:23.353Z,101375.26
2022-10-26T16:27:56.721Z,101374.48
2022-10-26T16:30:30.625Z,101376.24
2022-10-26T16:33:02.966Z,101379.48
2022-10-26T16:35:35.329Z,101380.86
2022-10-26T16:38:07.541Z,101385.44
2022-10-26T16:40:42.754Z,101389.29
2022-10-26T16:43:15.016Z,101393.56
2022-10-26T16:45:47.536Z,101398.38
2022-10-26T16:48:19.706Z,101397.86
2022-10-26T16:50:51.942Z,101400.73
2022-10-26T16:53:24.664Z,101400.16
2022-10-26T16:56:02.606Z,101402.16
2022-10-26T16:58:36.853Z,101403.89
2022-10-26T17:01:11.101Z,101402.75
2022-10-26T17:03:43.445Z,101401.69
2022-10-26T17:06:16.047Z,101408.32
2022-10-26T17:08:48.254Z,101410.09
2022-10-26T17:11:22.604Z,101412.19
2022-10-26T17:13:57.708Z,101414.11
2022-10-26T17:16:29.934Z,101417.86
2022-10-26T17:19:02.339Z,101417.45
2022-10-26T17:21:36.461Z,101415.45
2022-10-26T17:24:09.312Z,101416.77
2022-10-26T17:26:41.834Z,101415.64
2022-10-26T17:29:15.625Z,101421.82
2022-10-26T17:31:47.865Z,101424.79
2022-10-26T17:34:20.118Z,101421.99
2022-10-26T17:36:52.251Z,101425.53
2022-10-26T17:39:24.409Z,101425.73
2022-10-26T17:41:56.569Z,101424.80
2022-10-26T17:44:29.390Z,101428.92
2022-10-26T17:47:01.498Z,101429.45
2022-10-26T17:49:36.310Z,101431.62
2022-10-26T17:52:08.870Z,101436.63
2022-10-26T17:54:41.012Z,101434.92
2022-10-26T17:57:13.178Z,101435.25
2022-10-26T17:59:45.286Z,101433.83
2022-10-26T18:02:17.581Z,101440.17
2022-10-26T18:04:49.752Z,101437.46
2022-10-26T18:07:21.863Z,101438.10
2022-10-26T18:09:54.012Z,101434.56
2022-10-26T18:12:26.559Z,101437.91
2022-10-26T18:14:58.665Z,101437.05
2022-10-26T18:17:30.787Z,101437.28
2022-10-26T18:20:02.977Z,101437.63
2022-10-26T18:22:35.227Z,101445.02
2022-10-26T18:25:08.253Z,101446.91
2022-10-26T18:27:40.423Z,101455.95
2022-10-26T18:30:14.538Z,101459.80
2022-10-26T18:32:46.960Z,101461.64
2022-10-26T18:35:19.851Z,101464.10
2022-10-26T18:37:52.152Z,101467.69
2022-10-26T18:40:24.615Z,101473.03
2022-10-26T18:42:56.764Z,101478.25
2022-10-26T18:45:28.903Z,101474.92
2022-10-26T18:48:01.060Z,101479.29
2022-10-26T18:50:33.279Z,101481.71
2022-10-26T18:53:12.877Z,101484.95
2022-10-26T18:55:45.735Z,101489.58
2022-10-26T18:58:17.884Z,101488.91
2022-10-26T19:00:52.204Z,101493.98
2022-10-26T19:03:24.454Z,101498.57
2022-10-26T19:05:56.620Z,101499.97
2022-10-26T19:08:28.773Z,101505.08
2022-10-26T19:11:05.612Z,101505.41
2022-10-26T19:13:37.931Z,101511.27
2022-10-26T19:16:17.201Z,101518.80
2022-10-26T19:18:59.793Z,101530.42
2022-10-26T19:21:32.749Z,101534.41
2022-10-26T19:24:05.266Z,101540.05
2022-10-26T19:26:41.090Z,101546.34
2022-10-26T19:29:17.147Z,101546.00
2022-10-26T19:31:52.184Z,101545.20
2022-10-26T19:34:24.758Z,101547.69
2022-10-26T19:36:56.948Z,101549.87
2022-10-26T19:39:29.100Z,101556.05
2022-10-26T19:42:01.269Z,101560.09
2022-10-26T19:44:33.423Z,101559.40
2022-10-26T19:47:05.837Z,101566.00
2022-10-26T19:49:37.999Z,101566.91
2022-10-26T19:52:10.253Z,101571.45
2022-10-26T19:54:42.427Z,101575.73
2022-10-26T19:57:14.625Z,101577.63
2022-10-26T19:59:46.831Z,101576.15
2022-10-26T20:02:19.028Z,101577.52
2022-10-26T20:04:51.156Z,101582.01
2022-10-26T20:07:23.263Z,101579.48
2022-10-26T20:09:55.386Z,101584.52
2022-10-26T20:12:27.903Z,101584.96
2022-10-26T20:15:00.211Z,101586.48
2022-10-26T20:17:35.458Z,101593.09
2022-10-26T20:20:09.390Z,101592.22
2022-10-26T20:22:41.549Z,101602.32
2022-10-26T20:25:13.807Z,101601.36
2022-10-26T20:27:48.919Z,101606.84
2022-10-26T20:30:21.851Z,101610.16
2022-10-26T20:32:54.014Z,101612.83
2022-10-26T20:35:26.487Z,101615.68
2022-10-26T20:37:59.570Z,101617.96
2022-10-26T20:40:33.284Z,101615.23
2022-10-26T20:43:06.507Z,101612.29
2022-10-26T20:45:39.923Z,101613.88
2022-10-26T20:48:17.412Z,101616.77
2022-10-26T20:50:54.785Z,101616.06
2022-10-26T20:53:35.925Z,101616.26
2022-10-26T20:56:16.291Z,101618.88
2022-10-26T20:58:52.165Z,101624.44
2022-10-26T21:01:30.843Z,101624.63
2022-10-26T21:04:04.669Z,101624.52
2022-10-26T21:06:40.396Z,101627.52
2022-10-26T21:09:12.736Z,101629.41
2022-10-26T21:11:45.617Z,101629.11
2022-10-26T21:14:17.843Z,101627.95
2022-10-26T21:16:50.407Z,101629.83
2022-10-26T21:19:22.586Z,101628.11
2022-10-26T21:21:54.712Z,101628.11
2022-10-26T21:24:26.941Z,101627.53
2022-10-26T21:26:59.151Z,101629.76
2022-10-26T21:29:31.380Z,101633.27
2022-10-26T21:32:03.764Z,101636.08
2022-10-26T21:34:35.901Z,101638.29
2022-10-26T21:37:08.082Z,101639.30
2022-10-26T21:39:40.271Z,101639.55
2022-10-26T21:42:12.437Z,101640.22
2022-10-26T21:44:45.130Z,101641.09
2022-10-26T21:47:17.541Z,101641.80
2022-10-26T21:49:49.756Z,101643.95
2022-10-26T21:52:22.260Z,101645.42
2022-10-26T21:54:54.448Z,101645.80
2022-10-26T21:57:26.563Z,101649.37
2022-10-26T21:59:58.720Z,101649.73
2022-10-26T22:02:30.865Z,101648.69
2022-10-26T22:05:03.084Z,101650.48
2022-10-26T22:07:35.259Z,101652.97
2022-10-26T22:10:10.956Z,101651.77
2022-10-26T22:12:43.552Z,101648.83
2022-10-26T22:15:15.933Z,101649.34
2022-10-26T22:17:48.286Z,101653.30
2022-10-26T22:20:22.255Z,101654.00
2022-10-26T22:22:54.547Z,101652.79
2022-10-26T22:25:27.543Z,101654.73
2022-10-26T22:27:59.769Z,101664.66
2022-10-26T22:30:31.907Z,101664.14
2022-10-26T22:33:04.036Z,101662.14
2022-10-26T22:35:36.139Z,101660.84
2022-10-26T22:38:08.305Z,101663.03
2022-10-26T22:40:40.443Z,101665.34
2022-10-26T22:43:12.574Z,101664.16
2022-10-26T22:45:44.762Z,101666.06
2022-10-26T22:48:16.974Z,101664.12
2022-10-26T22:50:49.198Z,101665.44
2022-10-26T22:53:21.419Z,101662.55
2022-10-26T22:55:53.613Z,101671.27
2022-10-26T22:58:25.780Z,101667.45
2022-10-26T23:01:04.587Z,101669.40
2022-10-26T23:03:37.882Z,101671.08
2022-10-26T23:06:12.367Z,101671.66
2022-10-26T23:08:45.039Z,101675.10
2022-10-26T23:11:19.604Z,101671.75
2022-10-26T23:13:55.460Z,101670.95
2022-10-26T23:16:28.351Z,101671.36
2022-10-26T23:19:01.015Z,101677.65
2022-10-26T23:21:33.242Z,101676.29
2022-10-26T23:24:06.075Z,101677.30
2022-10-26T23:26:38.239Z,101682.68
2022-10-26T23:29:10.477Z,101678.10
2022-10-26T23:31:42.739Z,101680.07
2022-10-26T23:34:15.118Z,101678.18
2022-10-26T23:36:48.152Z,101678.88
2022-10-26T23:39:20.444Z,101678.55
2022-10-26T23:41:52.622Z,101681.98
2022-10-26T23:44:24.863Z,101684.09
2022-10-26T23:46:57.016Z,101686.45
2022-10-26T23:49:29.350Z,101682.56
2022-10-26T23:52:02.472Z,101686.85
2022-10-26T23:54:34.701Z,101689.23
2022-10-26T23:57:07.412Z,101692.53
2022-10-26T23:59:39.552Z,101695.40
